createdAt,value
2018-08-30T00:03:44.767Z,20.7
2018-08-30T00:08:45.730Z,20.7
2018-08-30T00:13:45.444Z,20.7
2018-08-30T00:18:57.803Z,20.7
2018-08-30T00:23:57.800Z,20.8
2018-08-30T00:28:57.729Z,20.8
2018-08-30T00:33:57.858Z,20.8
2018-08-30T00:38:57.898Z,20.8
2018-08-30T00:43:57.949Z,20.8
2018-08-30T00:48:57.872Z,20.8
2018-08-30T00:53:58.305Z,20.8
2018-08-30T00:58:58.052Z,20.8
2018-08-30T01:04:10.973Z,20.8
2018-08-30T01:09:10.802Z,20.8
2018-08-30T01:14:10.712Z,20.7
2018-08-30T01:19:10.723Z,20.7
2018-08-30T01:24:10.859Z,20.7
2018-08-30T01:29:10.847Z,20.6
2018-08-30T01:34:10.711Z,20.6
2018-08-30T01:39:10.800Z,20.6
2018-08-30T01:44:10.877Z,20.5
2018-08-30T01:49:23.679Z,20.4
2018-08-30T01:54:23.590Z,20.4
2018-08-30T01:59:23.523Z,20.3
2018-08-30T02:04:23.582Z,20.2
2018-08-30T02:09:23.612Z,20.1
2018-08-30T02:14:23.539Z,20
2018-08-30T02:19:23.582Z,19.9
2018-08-30T02:24:23.940Z,19.9
2018-08-30T02:29:23.852Z,19.8
2018-08-30T02:34:37.219Z,19.8
2018-08-30T02:39:37.185Z,19.7
2018-08-30T02:44:37.080Z,19.7
2018-08-30T02:49:37.146Z,19.6
2018-08-30T02:54:37.200Z,19.6
2018-08-30T02:59:37.104Z,19.6
2018-08-30T03:04:37.216Z,19.5
2018-08-30T03:09:37.200Z,19.3
2018-08-30T03:14:37.214Z,19.2
2018-08-30T03:19:37.321Z,19.1
2018-08-30T03:24:37.279Z,19
2018-08-30T03:29:37.265Z,18.9
2018-08-30T03:34:37.367Z,18.9
2018-08-30T03:39:37.305Z,18.8
2018-08-30T03:44:50.614Z,18.7
2018-08-30T03:49:50.341Z,18.6
2018-08-30T03:54:50.347Z,18.5
2018-08-30T03:59:50.353Z,18.4
2018-08-30T04:04:50.562Z,18.4
2018-08-30T04:09:50.354Z,18.2
2018-08-30T04:14:50.525Z,18.2
2018-08-30T04:19:51.095Z,18.2
2018-08-30T04:24:51.020Z,18.2
2018-08-30T04:30:03.747Z,18.2
2018-08-30T04:35:03.464Z,18.3
2018-08-30T04:40:03.597Z,18.3
2018-08-30T04:45:03.643Z,18.3
2018-08-30T04:50:03.680Z,18.4
2018-08-30T04:55:03.481Z,18.4
2018-08-30T05:00:03.483Z,18.6
2018-08-30T05:05:03.693Z,18.6
2018-08-30T05:10:03.766Z,18.6
2018-08-30T05:15:03.494Z,18.7
2018-08-30T05:20:03.699Z,18.9
2018-08-30T05:25:03.708Z,19.1
2018-08-30T05:30:03.875Z,19.6
2018-08-30T05:35:03.770Z,19.9
2018-08-30T05:40:16.109Z,19.9
2018-08-30T05:45:15.828Z,19.9
2018-08-30T05:50:15.927Z,20
2018-08-30T05:55:15.845Z,20.1
2018-08-30T06:00:16.024Z,20.2
2018-08-30T06:05:19.596Z,20.3
2018-08-30T06:10:19.789Z,20.2
2018-08-30T06:15:21.756Z,20.2
2018-08-30T06:20:21.695Z,20.4
2018-08-30T06:25:34.298Z,20.5
2018-08-30T06:30:34.147Z,20.7
2018-08-30T06:35:34.183Z,20.9
2018-08-30T06:40:34.030Z,20.9
2018-08-30T06:45:34.369Z,20.9
2018-08-30T06:50:35.295Z,21
2018-08-30T06:55:35.263Z,21
2018-08-30T07:00:35.291Z,21.1
2018-08-30T07:05:35.183Z,21.2
2018-08-30T07:10:35.170Z,21.3
2018-08-30T07:15:35.290Z,21.5
2018-08-30T07:20:35.206Z,21.4
2018-08-30T07:25:35.309Z,21.5
2018-08-30T07:30:35.306Z,21.7
2018-08-30T07:35:47.897Z,22.3
2018-08-30T07:40:47.641Z,22.3
2018-08-30T07:45:47.778Z,22.3
2018-08-30T07:50:47.878Z,22.1
2018-08-30T07:55:47.866Z,22.4
2018-08-30T08:00:47.745Z,22.1
2018-08-30T08:05:47.805Z,22.3
2018-08-30T08:10:47.850Z,22.5
2018-08-30T08:15:47.878Z,22.6
2018-08-30T08:20:47.802Z,22.6
2018-08-30T08:25:47.662Z,22.6
2018-08-30T08:30:47.896Z,22.5
2018-08-30T08:35:49.276Z,22.2
2018-08-30T08:40:49.003Z,22.4
2018-08-30T08:46:01.529Z,22.4
2018-08-30T08:51:01.481Z,22.5
2018-08-30T08:56:01.233Z,22.4
2018-08-30T09:01:01.332Z,22.2
2018-08-30T09:06:01.446Z,22.1
2018-08-30T09:11:01.253Z,22.2
2018-08-30T09:16:01.364Z,22.2
2018-08-30T09:21:02.482Z,22.2
2018-08-30T09:26:02.399Z,21.2
2018-08-30T09:31:15.139Z,20.9
2018-08-30T09:36:15.043Z,20.7
2018-08-30T09:41:15.084Z,20.6
2018-08-30T09:46:15.032Z,20.4
2018-08-30T09:51:15.061Z,20.3
2018-08-30T09:56:15.671Z,20.4
2018-08-30T10:01:15.837Z,20.3
2018-08-30T10:06:17.714Z,20.4
2018-08-30T10:11:17.648Z,20.4
2018-08-30T10:16:30.194Z,20.5
2018-08-30T10:21:30.172Z,20.6
2018-08-30T10:26:30.137Z,20.4
2018-08-30T10:31:30.117Z,20
2018-08-30T10:36:29.906Z,20
2018-08-30T10:41:29.908Z,19.9
2018-08-30T10:46:30.060Z,20.1
2018-08-30T10:51:30.113Z,20.1
2018-08-30T10:56:30.151Z,20.1
2018-08-30T11:01:30.190Z,20
2018-08-30T11:06:30.069Z,19.8
2018-08-30T11:11:30.157Z,19.8
2018-08-30T11:16:30.184Z,19.7
2018-08-30T11:21:30.097Z,19.8
2018-08-30T11:26:30.137Z,19.6
2018-08-30T11:31:29.945Z,19.7
2018-08-30T11:36:29.911Z,19.7
2018-08-30T11:41:30.300Z,19.8
2018-08-30T11:46:30.285Z,19.9
2018-08-30T11:51:29.970Z,19.8
2018-08-30T11:56:30.144Z,19.7
2018-08-30T12:01:29.959Z,19.6
2018-08-30T12:06:30.312Z,19.7
2018-08-30T12:11:30.304Z,19.6
2018-08-30T12:16:42.062Z,19.6
2018-08-30T12:21:41.991Z,19.6
2018-08-30T12:26:41.792Z,19.7
2018-08-30T12:31:42.115Z,19.7
2018-08-30T12:36:42.114Z,19.8
2018-08-30T12:41:42.064Z,19.9
2018-08-30T12:46:42.203Z,19.9
2018-08-30T12:51:43.110Z,20
2018-08-30T12:56:43.148Z,20
2018-08-30T13:01:59.866Z,20
2018-08-30T13:06:59.769Z,20
2018-08-30T13:12:02.632Z,19.9
2018-08-30T13:16:59.786Z,19.6
2018-08-30T13:21:59.677Z,19.6
2018-08-30T13:27:04.991Z,19.5
2018-08-30T13:32:04.911Z,19.3
2018-08-30T13:37:04.685Z,19.3
2018-08-30T13:42:04.980Z,19.1
2018-08-30T13:47:04.994Z,18.9
2018-08-30T13:52:04.603Z,18.9
2018-08-30T13:57:04.818Z,18.8
2018-08-30T14:02:10.373Z,18.7
2018-08-30T14:07:10.219Z,18.6
2018-08-30T14:12:22.018Z,18.5
2018-08-30T14:17:21.689Z,18.5
2018-08-30T14:22:21.876Z,18.5
2018-08-30T14:27:21.654Z,18.5
2018-08-30T14:32:21.690Z,18.6
2018-08-30T14:37:21.749Z,18.4
2018-08-30T14:42:21.648Z,18.3
2018-08-30T14:47:25.146Z,18.1
2018-08-30T14:52:24.979Z,18.3
2018-08-30T14:57:38.119Z,18.1
2018-08-30T15:02:37.835Z,18.3
2018-08-30T15:07:37.882Z,18.2
2018-08-30T15:12:37.743Z,18
2018-08-30T15:17:37.695Z,18
2018-08-30T15:22:37.722Z,18
2018-08-30T15:27:37.878Z,18
2018-08-30T15:32:38.896Z,17.8
2018-08-30T15:37:38.788Z,17.9
2018-08-30T15:42:51.644Z,17.7
2018-08-30T15:47:51.372Z,17.7
2018-08-30T15:52:51.508Z,17.7
2018-08-30T15:57:51.392Z,17.7
2018-08-30T16:02:51.382Z,17.5
2018-08-30T16:07:51.389Z,17.4
2018-08-30T16:12:51.604Z,17.4
2018-08-30T16:17:51.708Z,17.4
2018-08-30T16:22:51.446Z,17.4
2018-08-30T16:28:03.571Z,17.1
2018-08-30T16:33:03.328Z,17.1
2018-08-30T16:38:03.333Z,17.1
2018-08-30T16:43:03.548Z,17.1
2018-08-30T16:48:03.503Z,17.2
2018-08-30T16:53:03.572Z,17.2
2018-08-30T16:58:03.441Z,16.9
2018-08-30T17:03:04.149Z,17
2018-08-30T17:08:03.861Z,17.1
2018-08-30T17:13:16.385Z,17.1
2018-08-30T17:18:16.130Z,17.1
2018-08-30T17:23:16.135Z,17.1
2018-08-30T17:28:16.344Z,16.8
2018-08-30T17:33:16.261Z,16.8
2018-08-30T17:38:16.131Z,16.9
2018-08-30T17:43:16.342Z,16.9
2018-08-30T17:48:17.791Z,16.9
2018-08-30T17:53:17.739Z,16.9
2018-08-30T17:58:30.483Z,16.5
2018-08-30T18:03:30.190Z,16.7
2018-08-30T18:08:30.214Z,16.7
2018-08-30T18:13:30.185Z,16.7
2018-08-30T18:18:30.222Z,16.8
2018-08-30T18:23:30.451Z,16.7
2018-08-30T18:28:30.442Z,16.5
2018-08-30T18:33:30.453Z,16.6
2018-08-30T18:38:30.424Z,16.6
2018-08-30T18:43:30.464Z,16.6
2018-08-30T18:48:30.483Z,16.6
2018-08-30T18:53:30.611Z,16.6
2018-08-30T18:58:31.740Z,16.6
2018-08-30T19:03:31.490Z,16.6
2018-08-30T19:08:45.431Z,16.4
2018-08-30T19:13:45.129Z,16.5
2018-08-30T19:18:45.152Z,16.4
2018-08-30T19:23:45.162Z,16.3
2018-08-30T19:28:45.421Z,16.4
2018-08-30T19:33:45.412Z,16.2
2018-08-30T19:38:45.417Z,16.1
2018-08-30T19:43:50.428Z,16.2
2018-08-30T19:48:50.136Z,16.1
2018-08-30T19:54:03.646Z,16.1
2018-08-30T19:59:03.097Z,16.1
2018-08-30T20:04:03.106Z,15.9
2018-08-30T20:09:03.166Z,16
2018-08-30T20:14:03.071Z,15.8
2018-08-30T20:19:03.273Z,15.6
2018-08-30T20:24:03.327Z,15.7
2018-08-30T20:29:03.621Z,15.7
2018-08-30T20:34:03.283Z,15.7
2018-08-30T20:39:18.314Z,15.5
2018-08-30T20:44:17.888Z,15.5
2018-08-30T20:49:18.145Z,15.4
2018-08-30T20:54:17.936Z,15.5
2018-08-30T20:59:17.917Z,15.4
2018-08-30T21:04:18.139Z,15.3
2018-08-30T21:09:18.032Z,15.4
2018-08-30T21:14:18.192Z,15.4
2018-08-30T21:19:18.150Z,15.3
2018-08-30T21:24:30.850Z,15.3
2018-08-30T21:29:30.814Z,15.3
2018-08-30T21:34:30.724Z,15.2
2018-08-30T21:39:30.758Z,15.3
2018-08-30T21:44:30.800Z,15.4
2018-08-30T21:49:30.700Z,15.3
2018-08-30T21:54:30.758Z,15.3
2018-08-30T21:59:30.812Z,15.4
2018-08-30T22:04:30.685Z,15.4
2018-08-30T22:09:44.566Z,15.4
2018-08-30T22:14:44.514Z,15.4
2018-08-30T22:19:44.441Z,15.4
2018-08-30T22:24:44.480Z,15.4
2018-08-30T22:29:44.307Z,15.3
2018-08-30T22:34:46.084Z,15.3
2018-08-30T22:39:45.967Z,15.3
2018-08-30T22:44:46.063Z,15.4
2018-08-30T22:49:45.827Z,15.3
2018-08-30T22:54:45.839Z,15.2
2018-08-30T22:59:46.048Z,15.2
2018-08-30T23:04:45.983Z,15.1
2018-08-30T23:09:45.932Z,15.1
2018-08-30T23:14:46.160Z,14.9
2018-08-30T23:19:58.041Z,14.9
2018-08-30T23:24:57.868Z,14.9
2018-08-30T23:29:57.918Z,14.9
2018-08-30T23:34:57.967Z,14.9
2018-08-30T23:39:58.005Z,15
2018-08-30T23:44:57.775Z,15
2018-08-30T23:49:57.967Z,15
2018-08-30T23:54:58.228Z,15
2018-08-30T23:59:58.131Z,15
